Etusivu
METAR-TAF:

METAR-TAF

Lentoasemat :

Fairfield County Airport

Lancaster, Ohio, Yhdysvallat

Leveyspiiri: 39-45-26N, Pituuspiiri: 082-39-48W, korkeus merenpinnasta: 264 m

Tämänhetkinen sää

Tämä raportti tehtiin 33 minuuttia sitten, kello 00.53 UTC
Tuuli 9 kn lännestä/lounaasta
Lämpötila 4°C
Kosteus 52%
Ilmanpaine 1008 hPa
Näkyvyys: 16.1 km
selkeää

METAR: KLHQ 220053Z AUTO 25009KT 10SM CLR 04/M05 A2976 RMK AO2 SLP081 T00441050

Aika: 20:26 (01:26 UTC)


TAF: puuttuu

Säähavainnot ja -ennusteet yli 4000 lentoasemalta (METAR- ja TAF-raportit).

Käytössä olevat sääasemat on merkitty karttaan keltaisilla ja punaisilla pisteillä.

Aseta hiiri pisteen päälle nähdäksesi sääaseman nimen.

Klikkaa sitten nähdäksesi säähavainnot ja -ennusteet.

Kartan vaihtaminen: klikkaa mustalla rastilla varustettuja vihreitä pisteitä, niin voit zoomata sisään; viivalla varustettua vihreää pistettä, niin voit zoomata ulos tai vihreitä nuolia, niin pääset viereisille kartoille.


METAR-TAF: